Time;durP1;ratioP1;P1;durP2;ratioP2;P2;SDS_P1;SDS_P2;PMS_P1;PMS_P2;Temp;Humidity;BMP_temperature;BMP_pressure;BME280_temperature;BME280_humidity;BME280_pressure;Samples;Min_cycle;Max_cycle;Signal;HPM_P1;HPM_P2
2022/07/11 00:00:13;;;;;;;3.13;2.87;;;14.60;99.90;;;;;;4993724;28;20560;-86
2022/07/11 00:02:39;;;;;;;2.60;2.40;;;14.60;99.90;;;;;;4992159;28;20449;-86
2022/07/11 00:05:05;;;;;;;3.20;2.80;;;14.60;99.90;;;;;;4994385;28;20543;-86
2022/07/11 00:07:31;;;;;;;3.17;2.70;;;14.60;99.90;;;;;;4992499;28;20466;-86
2022/07/11 00:09:57;;;;;;;2.87;2.67;;;14.60;99.90;;;;;;4994843;28;20436;-86
2022/07/11 00:12:26;;;;;;;2.73;2.53;;;14.60;99.90;;;;;;4989976;28;20216;-85
2022/07/11 00:14:53;;;;;;;3.43;2.83;;;14.60;99.90;;;;;;4988072;28;20506;-86
2022/07/11 00:17:18;;;;;;;3.03;2.83;;;14.60;99.90;;;;;;4990412;28;20475;-86
2022/07/11 00:19:45;;;;;;;2.77;2.57;;;14.60;99.90;;;;;;4993602;28;20446;-85
2022/07/11 00:22:11;;;;;;;2.73;2.50;;;14.60;99.90;;;;;;4994164;28;20548;-85
2022/07/11 00:24:37;;;;;;;3.40;2.77;;;14.60;99.90;;;;;;4994936;28;20440;-86
2022/07/11 00:27:02;;;;;;;2.93;2.73;;;14.70;99.90;;;;;;4990541;28;20216;-84
2022/07/11 00:29:29;;;;;;;3.33;2.60;;;14.70;99.90;;;;;;4987672;28;20177;-85
2022/07/11 00:31:54;;;;;;;5.20;2.50;;;14.70;99.90;;;;;;4991064;28;20189;-86
2022/07/11 00:34:21;;;;;;;5.37;2.70;;;14.70;99.90;;;;;;4993110;28;20454;-85
2022/07/11 00:36:46;;;;;;;2.60;2.40;;;14.80;99.90;;;;;;4991794;28;20223;-85
2022/07/11 00:39:12;;;;;;;2.83;2.40;;;14.80;99.90;;;;;;4992358;28;20440;-85
2022/07/11 00:41:37;;;;;;;3.03;2.83;;;14.80;99.90;;;;;;4992277;28;20177;-85
2022/07/11 00:44:03;;;;;;;2.83;2.60;;;14.80;99.90;;;;;;4987558;28;20185;-86
2022/07/11 00:46:29;;;;;;;2.37;2.27;;;14.80;99.90;;;;;;4989986;28;20181;-87
2022/07/11 00:48:57;;;;;;;2.63;2.43;;;14.70;99.90;;;;;;4989624;28;20194;-86
2022/07/11 00:51:23;;;;;;;2.90;2.70;;;14.60;99.90;;;;;;4993633;28;20896;-85
2022/07/11 00:53:53;;;;;;;2.90;2.70;;;14.60;99.90;;;;;;4992732;28;20447;-85
2022/07/11 00:56:25;;;;;;;6.87;2.50;;;14.60;99.90;;;;;;4992520;28;21064;-86
2022/07/11 00:58:53;;;;;;;2.27;2.17;;;14.60;99.90;;;;;;4991795;28;20939;-86
2022/07/11 01:01:19;;;;;;;3.70;2.50;;;14.50;99.90;;;;;;5011068;28;20444;-86
2022/07/11 01:03:45;;;;;;;2.80;2.57;;;14.40;99.90;;;;;;4992536;28;21265;-86
2022/07/11 01:06:12;;;;;;;2.47;2.27;;;14.40;99.90;;;;;;4997069;28;20446;-86
2022/07/11 01:08:38;;;;;;;5.57;2.97;;;14.40;99.90;;;;;;4995976;28;20569;-85
2022/07/11 01:11:10;;;;;;;2.70;2.50;;;14.50;99.90;;;;;;4996613;28;20501;-86
2022/07/11 01:13:35;;;;;;;3.23;2.67;;;14.40;99.90;;;;;;4994603;28;20800;-86
2022/07/11 01:16:12;;;;;;;2.90;2.50;;;14.30;99.90;;;;;;4993776;28;20452;-86
2022/07/11 01:18:39;;;;;;;2.60;2.40;;;14.20;99.90;;;;;;4997128;28;20634;-85
2022/07/11 01:21:16;;;;;;;4.40;3.23;;;14.20;99.90;;;;;;4997303;28;20455;-86
2022/07/11 01:23:42;;;;;;;2.63;2.43;;;14.30;99.90;;;;;;5011327;28;20443;-85
2022/07/11 01:26:07;;;;;;;5.33;2.63;;;14.30;99.90;;;;;;4994103;28;20447;-85
2022/07/11 01:28:33;;;;;;;2.50;2.40;;;14.20;99.90;;;;;;4993730;28;20800;-85
2022/07/11 01:30:58;;;;;;;2.50;2.40;;;14.20;99.90;;;;;;4996486;28;20231;-84
2022/07/11 01:33:24;;;;;;;4.03;2.63;;;14.10;99.90;;;;;;4992800;28;20192;-84
2022/07/11 01:35:49;;;;;;;3.00;2.40;;;14.10;99.90;;;;;;4992189;28;21245;-84
2022/07/11 01:38:15;;;;;;;3.17;2.97;;;14.20;99.90;;;;;;4992248;28;20243;-84
2022/07/11 01:40:41;;;;;;;3.00;2.63;;;14.30;99.90;;;;;;4994477;28;20191;-86
2022/07/11 01:43:07;;;;;;;2.87;2.67;;;14.30;99.90;;;;;;4995981;28;21093;-86
2022/07/11 01:45:32;;;;;;;5.93;2.93;;;14.30;99.90;;;;;;4995832;28;20496;-86
2022/07/11 01:47:58;;;;;;;2.93;2.80;;;14.30;99.90;;;;;;4993657;28;20185;-86
2022/07/11 01:50:23;;;;;;;3.00;2.70;;;14.30;99.90;;;;;;4995992;28;20189;-86
2022/07/11 01:52:49;;;;;;;3.40;3.20;;;14.20;99.90;;;;;;4999716;28;20189;-85
2022/07/11 01:55:15;;;;;;;3.50;3.20;;;14.10;99.90;;;;;;4994850;28;20192;-86
2022/07/11 01:57:40;;;;;;;4.30;2.83;;;14.20;99.90;;;;;;4994223;28;20223;-87
2022/07/11 02:00:09;;;;;;;2.80;2.60;;;14.20;99.90;;;;;;4987883;28;20388;-86
2022/07/11 02:02:35;;;;;;;2.83;2.60;;;14.20;99.90;;;;;;4998243;28;20533;-87
2022/07/11 02:05:00;;;;;;;2.80;2.60;;;14.20;99.90;;;;;;4996578;28;21039;-87
2022/07/11 02:10:10;;;;;;;3.60;2.77;;;14.20;99.90;;;;;;4999363;28;20672;-88
2022/07/11 02:12:35;;;;;;;5.07;2.93;;;14.10;99.90;;;;;;4996008;28;20476;-88
2022/07/11 02:15:01;;;;;;;3.13;2.87;;;14.10;99.90;;;;;;4989474;28;20184;-87
2022/07/11 02:17:26;;;;;;;4.70;3.00;;;14.10;99.90;;;;;;4991156;28;20587;-87
2022/07/11 02:19:53;;;;;;;3.00;2.80;;;14.10;99.90;;;;;;4988138;28;20246;-86
2022/07/11 02:22:19;;;;;;;3.20;3.00;;;14.10;99.90;;;;;;4990810;28;20735;-87
2022/07/11 02:24:44;;;;;;;3.73;3.43;;;14.10;99.90;;;;;;5007649;28;20587;-86
2022/07/11 02:27:10;;;;;;;2.87;2.67;;;14.10;99.90;;;;;;4994553;28;20674;-87
2022/07/11 02:29:35;;;;;;;2.80;2.60;;;14.10;99.90;;;;;;4994123;28;20682;-88
2022/07/11 02:32:01;;;;;;;3.83;3.20;;;14.10;99.90;;;;;;4991808;28;20177;-87
2022/07/11 02:34:27;;;;;;;3.10;2.90;;;14.10;99.90;;;;;;5015960;28;20900;-86
2022/07/11 02:36:54;;;;;;;4.97;2.80;;;14.10;99.90;;;;;;5012791;28;20745;-86
2022/07/11 02:39:19;;;;;;;4.07;3.00;;;14.00;99.90;;;;;;5021733;28;20482;-87
2022/07/11 02:41:45;;;;;;;2.87;2.67;;;14.00;99.90;;;;;;4997947;28;20274;-89
2022/07/11 02:44:10;;;;;;;2.87;2.60;;;14.10;99.90;;;;;;4993836;28;20193;-88
2022/07/11 02:46:36;;;;;;;3.70;2.80;;;14.10;99.90;;;;;;4987537;28;20204;-87
2022/07/11 02:49:04;;;;;;;4.10;3.10;;;14.10;99.90;;;;;;4987855;28;20181;-87
2022/07/11 02:51:30;;;;;;;3.90;2.70;;;14.00;99.90;;;;;;5010275;28;20189;-87
2022/07/11 02:53:56;;;;;;;2.97;2.77;;;14.00;99.90;;;;;;4991131;28;20451;-87
2022/07/11 02:56:21;;;;;;;3.63;3.33;;;14.00;99.90;;;;;;4988791;28;20444;-87
2022/07/11 02:58:47;;;;;;;4.32;3.00;;;14.00;99.90;;;;;;4483158;28;14786360;-87
2022/07/11 03:01:12;;;;;;;3.37;3.13;;;13.90;99.90;;;;;;5006849;28;21141;-87
2022/07/11 03:03:41;;;;;;;3.50;3.27;;;14.00;99.90;;;;;;4992103;28;20189;-88
2022/07/11 03:06:06;;;;;;;4.10;3.77;;;13.90;99.90;;;;;;4996762;28;20280;-88
2022/07/11 03:08:32;;;;;;;4.23;3.83;;;13.90;99.90;;;;;;4997246;28;20469;-87
2022/07/11 03:10:57;;;;;;;4.40;3.40;;;13.90;99.90;;;;;;4995294;28;20272;-87
2022/07/11 03:13:23;;;;;;;3.40;3.10;;;13.80;99.90;;;;;;4993807;28;20193;-86
2022/07/11 03:15:48;;;;;;;2.97;2.77;;;13.70;99.90;;;;;;4989625;28;20215;-86
2022/07/11 03:18:14;;;;;;;3.80;3.27;;;13.70;99.90;;;;;;4989110;28;20231;-86
2022/07/11 03:20:39;;;;;;;3.87;3.67;;;13.70;99.90;;;;;;4994619;28;20239;-86
2022/07/11 03:23:05;;;;;;;3.87;3.57;;;13.70;99.90;;;;;;4993902;28;20243;-86
2022/07/11 03:25:30;;;;;;;3.70;3.50;;;13.70;99.90;;;;;;4991417;28;20524;-86
2022/07/11 03:27:56;;;;;;;5.60;3.30;;;13.80;99.90;;;;;;4992792;28;20304;-86
2022/07/11 03:30:21;;;;;;;2.90;2.70;;;13.90;99.90;;;;;;4991213;28;20346;-87
2022/07/11 03:32:47;;;;;;;4.30;3.33;;;13.90;99.90;;;;;;4990603;28;20241;-87
2022/07/11 03:37:56;;;;;;;4.23;3.40;;;13.90;99.90;;;;;;4991798;28;20227;-87
2022/07/11 03:40:22;;;;;;;3.93;3.30;;;14.00;99.90;;;;;;5008456;28;20444;-87
2022/07/11 03:42:48;;;;;;;4.10;3.80;;;13.90;99.90;;;;;;4995401;28;20222;-86
2022/07/11 03:45:14;;;;;;;3.67;3.37;;;13.90;99.90;;;;;;4994318;28;20185;-86
2022/07/11 03:47:39;;;;;;;3.83;3.33;;;13.90;99.90;;;;;;4991967;28;20677;-87
2022/07/11 03:50:06;;;;;;;3.30;3.00;;;13.80;99.90;;;;;;4993106;28;20188;-87
2022/07/11 03:52:32;;;;;;;4.00;3.70;;;13.70;99.90;;;;;;4989501;28;20192;-87
2022/07/11 03:54:57;;;;;;;4.03;3.50;;;13.60;99.90;;;;;;4991737;28;20821;-87
2022/07/11 03:57:23;;;;;;;4.20;3.90;;;13.60;99.90;;;;;;4992946;28;20490;-88
2022/07/11 03:59:48;;;;;;;3.67;3.37;;;13.60;99.90;;;;;;4990371;28;20334;-88
2022/07/11 04:02:14;;;;;;;3.50;3.30;;;13.60;99.90;;;;;;4990108;28;20250;-86
2022/07/11 04:04:39;;;;;;;3.83;3.43;;;13.70;99.90;;;;;;4993521;28;20181;-86
2022/07/11 04:07:05;;;;;;;4.00;3.60;;;13.70;99.90;;;;;;4992469;28;21408;-84
2022/07/11 04:09:31;;;;;;;3.70;3.30;;;13.80;99.90;;;;;;4995350;28;20259;-87
2022/07/11 04:11:56;;;;;;;4.03;3.47;;;13.80;99.90;;;;;;4995624;28;20272;-85
2022/07/11 04:14:22;;;;;;;3.57;3.30;;;13.80;99.90;;;;;;4991114;28;20444;-86
2022/07/11 04:16:47;;;;;;;9.00;4.73;;;13.90;99.90;;;;;;4989740;28;20246;-86
2022/07/11 04:19:13;;;;;;;3.40;3.17;;;13.90;99.90;;;;;;4992512;28;20271;-84
2022/07/11 04:21:38;;;;;;;3.90;3.60;;;14.00;99.90;;;;;;4993782;28;20652;-86
2022/07/11 04:24:04;;;;;;;3.83;3.23;;;14.30;99.90;;;;;;4992651;28;20669;-86
2022/07/11 04:26:30;;;;;;;3.73;3.43;;;14.10;99.90;;;;;;4992464;28;20224;-87
2022/07/11 04:28:55;;;;;;;3.87;3.43;;;14.10;99.90;;;;;;5008239;28;20197;-87
2022/07/11 04:31:21;;;;;;;4.20;3.90;;;14.10;99.90;;;;;;4992705;28;20219;-87
2022/07/11 04:33:49;;;;;;;3.90;3.60;;;14.10;99.90;;;;;;4996267;28;20196;-87
2022/07/11 04:36:14;;;;;;;3.67;3.40;;;14.10;99.90;;;;;;4996338;28;20292;-87
2022/07/11 04:38:43;;;;;;;3.27;3.07;;;14.10;99.90;;;;;;4997956;28;20447;-87
2022/07/11 04:41:09;;;;;;;3.60;3.40;;;14.10;99.90;;;;;;4995561;28;20216;-87
2022/07/11 04:43:36;;;;;;;4.23;3.77;;;14.10;99.90;;;;;;4989949;28;20492;-87
2022/07/11 04:46:04;;;;;;;3.50;3.20;;;14.20;99.90;;;;;;4991307;28;20276;-87
2022/07/11 04:48:30;;;;;;;4.03;3.70;;;14.20;99.90;;;;;;4996614;28;20436;-86
2022/07/11 04:50:56;;;;;;;7.90;4.00;;;14.30;99.90;;;;;;4988634;28;20493;-85
2022/07/11 04:53:21;;;;;;;4.07;3.67;;;14.30;99.90;;;;;;4993051;28;20193;-85
2022/07/11 04:55:47;;;;;;;3.70;3.50;;;14.20;99.90;;;;;;4994018;28;20192;-86
2022/07/11 04:58:12;;;;;;;4.30;3.90;;;14.10;99.90;;;;;;4990340;28;21230;-87
2022/07/11 05:00:38;;;;;;;3.87;3.57;;;14.10;99.90;;;;;;4998167;28;20212;-84
2022/07/11 05:03:09;;;;;;;4.27;3.87;;;14.20;99.90;;;;;;4994174;28;20201;-86
2022/07/11 05:05:35;;;;;;;4.60;4.20;;;14.10;99.90;;;;;;4995845;28;20210;-87
2022/07/11 05:08:00;;;;;;;3.53;3.23;;;14.10;99.90;;;;;;4996387;28;20973;-87
2022/07/11 05:10:26;;;;;;;3.60;3.30;;;14.20;99.90;;;;;;4993776;28;20505;-87
2022/07/11 05:12:51;;;;;;;4.23;3.73;;;14.10;99.90;;;;;;4995863;28;20184;-87
2022/07/11 05:15:17;;;;;;;3.87;3.57;;;14.20;99.90;;;;;;4989555;28;20193;-85
2022/07/11 05:17:42;;;;;;;3.70;3.40;;;14.30;99.90;;;;;;4988794;28;20329;-86
2022/07/11 05:20:08;;;;;;;4.10;3.80;;;14.40;99.90;;;;;;4993267;28;20274;-86
2022/07/11 05:22:34;;;;;;;3.90;3.70;;;14.40;99.90;;;;;;4995343;28;20664;-86
2022/07/11 05:24:59;;;;;;;3.80;3.50;;;14.40;99.90;;;;;;4994571;28;20530;-85
2022/07/11 05:27:25;;;;;;;3.60;3.27;;;14.50;99.90;;;;;;4996134;28;20551;-85
2022/07/11 05:29:50;;;;;;;4.83;4.43;;;14.60;99.90;;;;;;4994900;28;20386;-85
2022/07/11 05:32:16;;;;;;;3.70;3.40;;;14.70;99.90;;;;;;4992691;28;20204;-86
2022/07/11 05:34:41;;;;;;;3.77;3.47;;;14.60;99.90;;;;;;4996848;28;20710;-86
2022/07/11 05:37:07;;;;;;;4.20;3.80;;;14.70;99.90;;;;;;4993294;28;20320;-86
2022/07/11 05:39:33;;;;;;;4.47;4.07;;;14.80;99.90;;;;;;4991821;28;20354;-88
2022/07/11 05:41:58;;;;;;;4.50;4.10;;;14.80;99.90;;;;;;4988799;28;20189;-87
2022/07/11 05:44:24;;;;;;;4.33;4.03;;;14.80;99.90;;;;;;4995355;28;20173;-85
2022/07/11 05:46:49;;;;;;;4.40;4.00;;;14.90;99.90;;;;;;5009677;28;20273;-86
2022/07/11 05:49:16;;;;;;;4.23;3.93;;;14.90;99.90;;;;;;4993164;28;20703;-86
2022/07/11 05:51:41;;;;;;;3.57;3.20;;;14.80;99.90;;;;;;4995482;28;20296;-87
2022/07/11 05:54:07;;;;;;;4.37;3.97;;;14.80;99.90;;;;;;4998877;28;20794;-87
2022/07/11 05:56:32;;;;;;;4.53;4.13;;;14.80;99.90;;;;;;4990242;28;20631;-86
2022/07/11 05:59:07;;;;;;;3.90;3.60;;;14.80;99.90;;;;;;4986343;28;20204;-85
2022/07/11 06:01:32;;;;;;;6.00;4.00;;;14.80;99.90;;;;;;5002462;28;20277;-87
2022/07/11 06:03:59;;;;;;;4.20;3.90;;;14.80;99.90;;;;;;4988569;28;20843;-86
2022/07/11 06:06:27;;;;;;;4.03;3.67;;;14.90;99.90;;;;;;4989206;28;20255;-86
2022/07/11 06:08:53;;;;;;;4.13;3.83;;;15.00;99.90;;;;;;4990197;28;20459;-87
2022/07/11 06:11:22;;;;;;;4.27;3.87;;;15.20;99.90;;;;;;5007976;28;20458;-87
2022/07/11 06:13:49;;;;;;;3.47;3.23;;;15.40;99.90;;;;;;4997872;28;20200;-87
2022/07/11 06:16:15;;;;;;;4.07;3.63;;;15.60;99.90;;;;;;4994543;28;20764;-87
2022/07/11 06:18:44;;;;;;;4.10;3.67;;;15.60;99.90;;;;;;4994253;28;20570;-89
2022/07/11 06:21:13;;;;;;;3.30;3.00;;;15.60;99.90;;;;;;4987035;28;20720;-90
2022/07/11 06:23:40;;;;;;;4.47;3.43;;;15.60;99.90;;;;;;4990608;28;20853;-89
2022/07/11 06:26:05;;;;;;;4.37;3.97;;;16.00;99.90;;;;;;4995665;28;20440;-90
2022/07/11 06:28:31;;;;;;;4.10;3.80;;;16.20;99.90;;;;;;4990917;28;20850;-88
2022/07/11 06:30:57;;;;;;;4.20;3.90;;;16.20;99.90;;;;;;4992287;28;20197;-87
2022/07/11 06:33:23;;;;;;;4.23;3.83;;;16.30;99.90;;;;;;4995208;28;20790;-88
2022/07/11 06:35:52;;;;;;;3.77;3.47;;;16.40;99.90;;;;;;4989053;28;20227;-88
2022/07/11 06:38:18;;;;;;;4.27;4.00;;;16.40;99.90;;;;;;4990678;28;20217;-89
2022/07/11 06:40:43;;;;;;;4.53;3.90;;;16.50;99.90;;;;;;4989364;28;20497;-87
2022/07/11 06:43:10;;;;;;;3.73;3.43;;;16.60;99.90;;;;;;4995633;28;21809;-87
2022/07/11 06:45:36;;;;;;;4.07;3.67;;;16.70;99.90;;;;;;4991473;28;20232;-88
2022/07/11 06:48:09;;;;;;;5.23;4.47;;;16.70;99.90;;;;;;4974650;28;20889;-86
2022/07/11 06:50:43;;;;;;;4.03;3.70;;;16.70;99.90;;;;;;4993082;28;21143;-85
2022/07/11 06:53:09;;;;;;;4.77;4.40;;;16.80;99.90;;;;;;5008348;28;20461;-89
2022/07/11 06:55:35;;;;;;;4.60;4.20;;;16.90;99.90;;;;;;5015031;28;20456;-90
2022/07/11 06:58:08;;;;;;;4.53;4.13;;;17.10;99.90;;;;;;5038307;28;20228;-93
2022/07/11 07:00:34;;;;;;;4.27;3.97;;;17.30;99.90;;;;;;5007019;28;20196;-91
2022/07/11 07:02:59;;;;;;;4.47;4.07;;;17.10;99.90;;;;;;4998906;28;20435;-86
2022/07/11 07:05:25;;;;;;;4.30;4.00;;;17.10;99.90;;;;;;4988450;28;20185;-88
2022/07/11 07:07:53;;;;;;;5.23;4.37;;;17.40;99.90;;;;;;5005396;28;20873;-89
2022/07/11 07:10:20;;;;;;;4.40;4.10;;;18.00;99.90;;;;;;4992247;28;20503;-88
2022/07/11 07:12:46;;;;;;;4.20;3.80;;;17.70;99.90;;;;;;4990372;28;20448;-91
2022/07/11 07:15:13;;;;;;;6.30;4.50;;;18.10;99.90;;;;;;4977922;28;20957;-88
2022/07/11 07:17:41;;;;;;;4.80;4.43;;;18.20;99.90;;;;;;4989154;28;20516;-88
2022/07/11 07:20:10;;;;;;;4.63;4.13;;;18.00;99.90;;;;;;4994414;28;20806;-89
2022/07/11 07:22:35;;;;;;;4.83;4.47;;;18.00;99.90;;;;;;4990793;28;21015;-88
2022/07/11 07:25:01;;;;;;;5.97;4.90;;;17.60;99.90;;;;;;4979123;28;20482;-87
2022/07/11 07:27:36;;;;;;;4.37;4.07;;;17.80;99.90;;;;;;4992194;28;20185;-89
2022/07/11 07:33:26;;;;;;;5.40;4.20;;;17.60;99.90;;;;;;4983755;28;21386;-90
2022/07/11 07:35:54;;;;;;;4.37;3.90;;;18.30;99.90;;;;;;4993147;28;20446;-92
2022/07/11 07:38:22;;;;;;;4.57;3.60;;;19.00;99.90;;;;;;4989196;28;20480;-93
2022/07/11 07:40:48;;;;;;;5.10;4.70;;;19.50;99.90;;;;;;4988266;28;20436;-90
2022/07/11 07:43:16;;;;;;;5.00;4.37;;;19.10;99.90;;;;;;4991222;28;20454;-88
2022/07/11 07:45:45;;;;;;;8.93;3.90;;;18.90;99.90;;;;;;4987844;28;20177;-91
2022/07/11 07:48:11;;;;;;;4.20;3.90;;;19.00;99.90;;;;;;4997361;28;20479;-93
2022/07/11 07:50:36;;;;;;;4.10;3.80;;;19.20;99.90;;;;;;5001750;28;20436;-92
2022/07/11 07:53:04;;;;;;;5.37;4.83;;;19.80;99.90;;;;;;5000866;28;20185;-94
2022/07/11 07:55:30;;;;;;;6.13;4.67;;;19.30;99.90;;;;;;4994217;28;20177;-93
2022/07/11 07:57:59;;;;;;;4.50;4.20;;;19.20;99.90;;;;;;4992847;28;20486;-92
2022/07/11 08:03:09;;;;;;;4.13;3.83;;;18.90;99.90;;;;;;4987260;28;20979;-94
2022/07/11 08:05:37;;;;;;;4.57;4.27;;;18.90;99.90;;;;;;4984134;28;20444;-86
2022/07/11 08:08:06;;;;;;;4.10;3.80;;;18.50;99.90;;;;;;4977485;28;20717;-84
2022/07/11 08:10:31;;;;;;;4.30;4.00;;;18.50;99.90;;;;;;4999326;28;20478;-84
2022/07/11 08:12:57;;;;;;;4.90;3.50;;;18.60;99.90;;;;;;4986002;28;20448;-85
2022/07/11 08:15:23;;;;;;;3.70;3.40;;;19.10;99.90;;;;;;4991019;28;20176;-86
2022/07/11 08:17:52;;;;;;;3.20;3.00;;;18.80;99.90;;;;;;4986490;28;20208;-86
2022/07/11 08:20:26;;;;;;;3.50;3.20;;;19.10;99.90;;;;;;4990219;28;20196;-87
2022/07/11 08:22:52;;;;;;;3.20;3.00;;;19.10;99.90;;;;;;4982447;28;20442;-85
2022/07/11 08:25:17;;;;;;;3.33;3.13;;;19.00;99.90;;;;;;4989269;28;20977;-87
2022/07/11 08:27:43;;;;;;;3.63;3.33;;;19.00;99.90;;;;;;4986948;28;20189;-87
2022/07/11 08:30:10;;;;;;;3.27;2.97;;;18.50;99.90;;;;;;4991436;28;20496;-87
2022/07/11 08:32:41;;;;;;;3.10;2.90;;;18.80;99.90;;;;;;4980892;28;20189;-87
2022/07/11 08:35:07;;;;;;;2.57;2.43;;;19.00;99.90;;;;;;4986680;28;20519;-88
2022/07/11 08:37:33;;;;;;;3.03;2.83;;;19.00;99.90;;;;;;4980191;28;21280;-88
2022/07/11 08:39:59;;;;;;;3.00;2.27;;;18.90;99.90;;;;;;4987324;28;20431;-89
2022/07/11 08:42:30;;;;;;;2.57;2.37;;;19.00;99.90;;;;;;4990253;28;20654;-87
2022/07/11 08:44:57;;;;;;;2.53;2.43;;;18.90;99.90;;;;;;4993025;28;20182;-86
2022/07/11 08:47:23;;;;;;;5.23;2.53;;;19.50;99.90;;;;;;4990069;28;20842;-86
2022/07/11 08:49:57;;;;;;;2.33;2.20;;;19.80;99.90;;;;;;4991701;28;20993;-87
2022/07/11 08:52:23;;;;;;;2.47;2.20;;;19.80;99.90;;;;;;5008653;28;20450;-88
2022/07/11 08:54:52;;;;;;;2.10;2.00;;;20.20;99.90;;;;;;4981077;28;20470;-88
2022/07/11 08:57:18;;;;;;;2.83;2.00;;;20.40;99.50;;;;;;4991284;28;20531;-89
2022/07/11 08:59:48;;;;;;;1.50;1.40;;;20.40;99.60;;;;;;4987637;28;20477;-87
2022/07/11 09:02:17;;;;;;;1.67;1.57;;;20.20;98.60;;;;;;4981048;28;20467;-88
2022/07/11 09:04:43;;;;;;;1.70;1.60;;;20.30;98.60;;;;;;4988603;28;20435;-88
2022/07/11 09:07:08;;;;;;;1.20;1.20;;;20.30;99.00;;;;;;4990662;28;20479;-88
2022/07/11 09:09:37;;;;;;;2.00;1.90;;;20.50;98.10;;;;;;4985264;28;20181;-85
2022/07/11 09:12:14;;;;;;;1.60;1.43;;;20.50;97.80;;;;;;4989323;28;20541;-86
2022/07/11 09:14:57;;;;;;;1.33;1.27;;;20.80;98.30;;;;;;4989683;28;20466;-86
2022/07/11 09:17:28;;;;;;;1.43;1.33;;;20.90;96.10;;;;;;4991858;28;20479;-85
2022/07/11 09:19:57;;;;;;;1.20;1.10;;;20.70;97.70;;;;;;4988054;28;20439;-86
2022/07/11 09:25:31;;;;;;;1.17;1.07;;;20.60;95.30;;;;;;4984250;28;21308;-87
2022/07/11 09:28:07;;;;;;;1.00;0.90;;;21.10;97.30;;;;;;4994193;28;20729;-88
2022/07/11 09:30:39;;;;;;;1.20;1.17;;;21.30;97.20;;;;;;5001792;28;20495;-87
2022/07/11 09:33:09;;;;;;;1.20;1.10;;;21.10;95.60;;;;;;4993366;28;20841;-86
2022/07/11 09:35:40;;;;;;;0.80;0.80;;;21.40;97.00;;;;;;5001002;28;21041;-88
2022/07/11 09:38:16;;;;;;;0.93;0.93;;;21.40;96.00;;;;;;4988734;28;20475;-89
2022/07/11 09:40:47;;;;;;;0.80;0.80;;;21.30;95.40;;;;;;4979134;28;20471;-87
2022/07/11 09:43:13;;;;;;;0.97;0.97;;;21.40;94.50;;;;;;5010252;28;20486;-89
2022/07/11 09:45:41;;;;;;;3.47;0.90;;;21.70;94.70;;;;;;4985820;28;20443;-89
2022/07/11 09:48:13;;;;;;;0.97;0.97;;;22.10;95.40;;;;;;4986691;28;20452;-88
2022/07/11 09:51:20;;;;;;;1.33;1.10;;;22.40;94.60;;;;;;5002773;28;20440;-95
2022/07/11 09:53:57;;;;;;;0.90;0.90;;;22.20;94.40;;;;;;4999393;28;20527;-87
2022/07/11 09:56:39;;;;;;;1.10;1.10;;;23.20;94.00;;;;;;4980274;28;20896;-87
2022/07/11 09:59:06;;;;;;;1.20;1.03;;;23.00;93.70;;;;;;5000787;28;20456;-88
2022/07/11 10:01:32;;;;;;;1.00;1.00;;;23.10;93.20;;;;;;4992653;28;20436;-87
2022/07/11 10:03:58;;;;;;;1.00;1.00;;;23.40;94.60;;;;;;4988684;28;20437;-89
2022/07/11 10:06:24;;;;;;;1.00;1.00;;;23.00;94.00;;;;;;4978556;28;20844;-87
2022/07/11 10:08:51;;;;;;;1.13;0.97;;;22.90;93.80;;;;;;4987746;28;20181;-87
2022/07/11 10:11:18;;;;;;;1.47;0.93;;;22.80;93.10;;;;;;4993280;28;20448;-88
2022/07/11 10:13:44;;;;;;;1.10;1.10;;;22.30;93.70;;;;;;4996592;28;20455;-91
2022/07/11 10:16:36;;;;;;;1.13;1.00;;;22.20;93.70;;;;;;4981863;28;20455;-88
2022/07/11 10:19:11;;;;;;;1.20;1.20;;;21.90;94.00;;;;;;4975205;28;20503;-87
2022/07/11 10:21:36;;;;;;;0.90;0.90;;;21.70;93.70;;;;;;5001658;28;20450;-87
2022/07/11 10:24:21;;;;;;;1.00;1.00;;;22.10;93.50;;;;;;5001185;28;21069;-87
2022/07/11 10:27:02;;;;;;;1.70;1.40;;;22.50;92.60;;;;;;5004661;28;20613;-87
2022/07/11 10:29:35;;;;;;;1.30;1.20;;;22.80;94.40;;;;;;4995386;28;21222;-87
2022/07/11 10:32:07;;;;;;;1.07;1.00;;;22.90;93.90;;;;;;4998172;28;20527;-87
2022/07/11 10:34:33;;;;;;;1.30;1.20;;;23.10;94.40;;;;;;4987615;28;20498;-87
2022/07/11 10:37:04;;;;;;;1.30;1.20;;;23.10;92.40;;;;;;4984674;28;20468;-86
2022/07/11 10:39:32;;;;;;;2.50;1.30;;;23.10;92.60;;;;;;4991971;28;20652;-89
2022/07/11 10:41:59;;;;;;;1.07;1.07;;;23.10;93.70;;;;;;4992562;28;20443;-86
2022/07/11 10:44:27;;;;;;;1.63;1.53;;;23.10;93.40;;;;;;4988682;28;20470;-87
2022/07/11 10:46:53;;;;;;;1.33;1.30;;;23.50;93.90;;;;;;4996599;28;20927;-86
2022/07/11 10:49:40;;;;;;;1.47;1.37;;;24.10;93.60;;;;;;4989779;28;20483;-86
2022/07/11 10:52:07;;;;;;;1.20;1.20;;;24.50;92.80;;;;;;4990797;28;20799;-88
2022/07/11 10:54:42;;;;;;;1.20;1.20;;;24.50;90.70;;;;;;4991802;28;20449;-90
2022/07/11 10:57:44;;;;;;;1.37;1.27;;;24.20;90.70;;;;;;4982959;28;20598;-88
2022/07/11 11:00:14;;;;;;;1.50;1.40;;;24.20;91.00;;;;;;4981866;28;20451;-87
2022/07/11 11:03:12;;;;;;;1.20;1.10;;;24.90;90.00;;;;;;4988042;28;20886;-88
2022/07/11 11:05:44;;;;;;;2.10;1.20;;;25.20;90.00;;;;;;4983877;28;20894;-85
2022/07/11 11:11:22;;;;;;;1.43;1.33;;;24.70;89.60;;;;;;5010921;28;20486;-85
2022/07/11 11:14:20;;;;;;;1.57;1.50;;;23.70;91.10;;;;;;5006425;28;20433;-86
2022/07/11 11:16:50;;;;;;;1.90;1.80;;;23.20;91.90;;;;;;4991798;28;20444;-89
2022/07/11 11:19:51;;;;;;;1.23;1.23;;;23.50;91.00;;;;;;4993861;28;20454;-87
2022/07/11 11:22:18;;;;;;;1.20;1.10;;;23.50;91.30;;;;;;4985072;28;20506;-87
2022/07/11 11:24:45;;;;;;;1.30;1.20;;;23.40;92.40;;;;;;4995167;28;20538;-88
2022/07/11 11:27:31;;;;;;;1.13;1.13;;;24.00;90.10;;;;;;4983619;28;20469;-87
2022/07/11 11:29:56;;;;;;;1.50;1.40;;;24.40;91.30;;;;;;4998190;28;20443;-90
2022/07/11 11:32:31;;;;;;;1.87;1.63;;;24.90;89.00;;;;;;4980622;28;20447;-87
2022/07/11 11:35:23;;;;;;;1.50;1.40;;;25.00;89.90;;;;;;5000425;28;20188;-90
2022/07/11 11:38:03;;;;;;;1.73;1.63;;;24.70;88.70;;;;;;4984314;28;20487;-90
2022/07/11 11:40:29;;;;;;;2.77;1.77;;;23.90;88.40;;;;;;5001504;28;20435;-90
2022/07/11 11:43:25;;;;;;;1.73;1.50;;;24.00;90.00;;;;;;4983236;28;20479;-90
2022/07/11 11:45:51;;;;;;;1.70;1.53;;;25.00;91.00;;;;;;4988992;28;20180;-90
2022/07/11 11:48:37;;;;;;;1.47;1.40;;;25.50;90.10;;;;;;4983085;28;21806;-90
2022/07/11 11:51:11;;;;;;;1.90;1.33;;;26.40;89.10;;;;;;5005693;28;20460;-91
2022/07/11 11:53:54;;;;;;;1.63;1.53;;;26.70;89.10;;;;;;5005855;28;20448;-89
2022/07/11 11:56:28;;;;;;;1.50;1.40;;;26.20;83.60;;;;;;4985108;28;20448;-89
2022/07/11 11:58:59;;;;;;;1.73;1.60;;;25.10;88.30;;;;;;5004061;28;20496;-88
2022/07/11 12:01:26;;;;;;;1.70;1.60;;;24.70;85.80;;;;;;5003936;28;20987;-88
2022/07/11 12:03:57;;;;;;;1.50;1.40;;;23.90;87.00;;;;;;4995049;28;20463;-88
2022/07/11 12:06:28;;;;;;;1.60;1.50;;;23.50;90.00;;;;;;5005953;28;20433;-88
2022/07/11 12:09:09;;;;;;;1.70;1.60;;;23.80;92.10;;;;;;4992750;28;20451;-88
2022/07/11 12:11:37;;;;;;;1.67;1.57;;;23.70;92.00;;;;;;4982097;28;20448;-88
2022/07/11 12:14:06;;;;;;;1.40;1.33;;;24.10;91.40;;;;;;4992035;28;20724;-88
2022/07/11 12:16:39;;;;;;;1.70;1.60;;;24.40;91.50;;;;;;4994996;28;21084;-87
2022/07/11 12:19:08;;;;;;;2.10;1.50;;;24.90;92.80;;;;;;4990111;28;20543;-89
2022/07/11 12:21:38;;;;;;;1.43;1.43;;;25.50;90.60;;;;;;4994013;28;20440;-88
2022/07/11 12:24:09;;;;;;;3.23;1.90;;;26.60;89.30;;;;;;4996650;28;20531;-89
2022/07/11 12:26:37;;;;;;;1.50;1.40;;;26.10;88.00;;;;;;4989084;28;20428;-88
2022/07/11 12:29:20;;;;;;;1.67;1.57;;;26.70;87.30;;;;;;4994588;28;20890;-88
2022/07/11 12:31:50;;;;;;;1.83;1.70;;;26.60;90.00;;;;;;4997588;28;20466;-89
2022/07/11 12:34:18;;;;;;;2.47;1.90;;;26.00;90.10;;;;;;5007565;28;20571;-87
2022/07/11 12:36:45;;;;;;;1.93;1.83;;;25.50;90.90;;;;;;4995846;28;20816;-88
2022/07/11 12:39:23;;;;;;;1.90;1.80;;;25.60;89.80;;;;;;4993475;28;20893;-87
2022/07/11 12:41:50;;;;;;;2.20;2.10;;;25.20;89.30;;;;;;4988775;28;20455;-87
2022/07/11 12:47:06;;;;;;;2.00;1.90;;;25.30;91.00;;;;;;4989313;28;21099;-88
2022/07/11 12:49:33;;;;;;;2.23;2.03;;;25.20;90.80;;;;;;4993825;28;20801;-88
2022/07/11 12:52:00;;;;;;;2.23;1.90;;;25.00;91.50;;;;;;4990437;28;20599;-89
2022/07/11 12:54:31;;;;;;;3.33;2.00;;;25.20;91.70;;;;;;5009808;28;21220;-89
2022/07/11 12:57:03;;;;;;;1.63;1.53;;;25.60;90.50;;;;;;4989787;28;21192;-88
2022/07/11 12:59:31;;;;;;;1.90;1.77;;;25.70;92.00;;;;;;4995047;28;20459;-90
2022/07/11 13:02:14;;;;;;;2.63;1.90;;;25.80;90.20;;;;;;4990165;28;20452;-89
2022/07/11 13:04:55;;;;;;;1.87;1.77;;;25.60;91.90;;;;;;4996254;28;20838;-89
2022/07/11 13:10:16;;;;;;;1.87;1.77;;;26.70;86.50;;;;;;4994443;28;20450;-89
2022/07/11 13:12:43;;;;;;;2.10;1.90;;;26.50;86.50;;;;;;4996284;28;21045;-88
2022/07/11 13:15:10;;;;;;;1.83;1.73;;;25.60;86.90;;;;;;5005410;28;20438;-88